createdAt,value
2019-04-20T00:02:11.231Z,13.99
2019-04-20T00:04:35.651Z,13.83
2019-04-20T00:07:04.058Z,13.61
2019-04-20T00:09:37.123Z,13.47
2019-04-20T00:12:11.557Z,13.53
2019-04-20T00:14:36.287Z,13.65
2019-04-20T00:17:05.177Z,13.64
2019-04-20T00:19:40.472Z,13.68
2019-04-20T00:22:15.147Z,13.66
2019-04-20T00:24:45.107Z,13.66
2019-04-20T00:27:37.070Z,13.71
2019-04-20T00:29:58.819Z,13.66
2019-04-20T00:32:29.644Z,13.88
2019-04-20T00:34:47.118Z,14.01
2019-04-20T00:37:15.201Z,14.08
2019-04-20T00:39:44.772Z,14.07
2019-04-20T00:42:16.195Z,13.88
2019-04-20T00:44:45.835Z,13.70
2019-04-20T00:47:25.268Z,13.45
2019-04-20T00:49:58.061Z,13.41
2019-04-20T00:52:31.146Z,13.36
2019-04-20T00:54:45.345Z,13.21
2019-04-20T00:57:24.774Z,13.07
2019-04-20T01:00:06.178Z,13.00
2019-04-20T01:02:29.674Z,13.08
2019-04-20T01:05:04.594Z,13.11
2019-04-20T01:07:32.086Z,13.15
2019-04-20T01:10:02.860Z,13.25
2019-04-20T01:12:35.038Z,13.44
2019-04-20T01:15:05.857Z,13.52
2019-04-20T01:17:32.134Z,13.56
2019-04-20T01:20:00.720Z,13.56
2019-04-20T01:22:35.258Z,13.45
2019-04-20T01:25:07.472Z,13.22
2019-04-20T01:27:42.470Z,13.08
2019-04-20T01:30:09.942Z,12.98
2019-04-20T01:32:41.924Z,12.88
2019-04-20T01:35:16.740Z,12.84
2019-04-20T01:37:46.963Z,12.77
2019-04-20T01:40:04.534Z,12.75
2019-04-20T01:42:32.147Z,12.81
2019-04-20T01:45:02.078Z,12.79
2019-04-20T01:47:38.994Z,12.82
2019-04-20T01:50:08.540Z,13.01
2019-04-20T01:52:47.003Z,13.13
2019-04-20T01:55:33.228Z,13.25
2019-04-20T01:58:17.575Z,13.22
2019-04-20T02:00:44.995Z,12.99
2019-04-20T02:03:39.829Z,12.85
2019-04-20T02:06:08.406Z,12.67
2019-04-20T02:08:34.251Z,12.56
2019-04-20T02:11:05.752Z,12.60
2019-04-20T02:13:42.166Z,12.47
2019-04-20T02:16:13.948Z,12.49
2019-04-20T02:18:44.292Z,12.47
2019-04-20T02:21:19.641Z,12.38
2019-04-20T02:23:44.126Z,12.43
2019-04-20T02:26:05.520Z,12.51
2019-04-20T02:29:01.980Z,12.56
2019-04-20T02:31:40.921Z,12.66
2019-04-20T02:34:35.685Z,12.52
2019-04-20T02:37:07.625Z,12.21
2019-04-20T02:39:37.603Z,12.02
2019-04-20T02:42:08.010Z,11.91
2019-04-20T02:44:42.586Z,11.69
2019-04-20T02:47:08.157Z,11.52
2019-04-20T02:49:37.650Z,11.38
2019-04-20T02:52:03.017Z,11.41
2019-04-20T02:54:29.733Z,11.45
2019-04-20T02:57:05.622Z,11.71
2019-04-20T02:59:54.057Z,11.91
2019-04-20T03:01:52.127Z,11.97
2019-04-20T03:04:06.976Z,11.99
2019-04-20T03:06:53.541Z,12.09
2019-04-20T03:09:25.464Z,11.96
2019-04-20T03:14:21.928Z,11.50
2019-04-20T03:16:50.370Z,11.24
2019-04-20T03:19:19.793Z,11.26
2019-04-20T03:22:04.110Z,11.10
2019-04-20T03:24:31.079Z,11.10
2019-04-20T03:26:57.911Z,11.13
2019-04-20T03:29:45.711Z,11.20
2019-04-20T03:32:38.351Z,11.33
2019-04-20T03:35:01.149Z,11.49
2019-04-20T03:37:22.207Z,11.53
2019-04-20T03:39:40.465Z,11.55
2019-04-20T03:41:55.766Z,11.67
2019-04-20T03:44:27.495Z,11.41
2019-04-20T03:46:59.768Z,11.14
2019-04-20T03:49:52.833Z,10.90
2019-04-20T03:52:28.740Z,10.75
2019-04-20T03:54:56.959Z,10.82
2019-04-20T03:57:54.097Z,10.77
2019-04-20T04:00:21.958Z,10.69
2019-04-20T04:03:11.028Z,10.72
2019-04-20T04:05:27.717Z,10.94
2019-04-20T04:07:46.639Z,11.23
2019-04-20T04:10:24.973Z,11.34
2019-04-20T04:13:09.895Z,11.41
2019-04-20T04:15:47.845Z,11.50
2019-04-20T04:18:17.736Z,11.43
2019-04-20T04:20:49.958Z,11.11
2019-04-20T04:23:32.951Z,10.99
2019-04-20T04:26:00.807Z,10.80
2019-04-20T04:28:31.215Z,10.64
2019-04-20T04:31:05.119Z,10.58
2019-04-20T04:36:00.665Z,10.54
2019-04-20T04:38:37.639Z,10.83
2019-04-20T04:43:37.231Z,11.37
2019-04-20T04:45:46.984Z,11.54
2019-04-20T04:48:23.868Z,11.50
2019-04-20T04:50:52.540Z,11.52
2019-04-20T04:53:28.478Z,11.59
2019-04-20T04:55:54.837Z,11.33
2019-04-20T04:58:17.336Z,11.01
2019-04-20T05:00:46.727Z,10.85
2019-04-20T05:03:37.593Z,10.77
2019-04-20T05:06:06.677Z,10.71
2019-04-20T05:08:26.161Z,10.79
2019-04-20T05:10:49.978Z,10.83
2019-04-20T05:13:19.817Z,10.91
2019-04-20T05:16:05.253Z,11.09
2019-04-20T05:18:44.790Z,11.33
2019-04-20T05:21:10.478Z,11.46
2019-04-20T05:23:35.431Z,11.61
2019-04-20T05:26:25.075Z,11.83
2019-04-20T05:28:50.186Z,12.01
2019-04-20T05:31:11.392Z,11.94
2019-04-20T05:34:03.453Z,11.65
2019-04-20T05:36:35.760Z,11.54
2019-04-20T05:39:02.271Z,11.51
2019-04-20T05:41:26.884Z,11.65
2019-04-20T05:43:59.717Z,11.73
2019-04-20T05:46:32.118Z,11.87
2019-04-20T05:49:02.853Z,11.95
2019-04-20T05:51:37.996Z,12.05
2019-04-20T05:54:07.761Z,12.23
2019-04-20T05:56:44.513Z,12.42
2019-04-20T05:59:07.019Z,12.56
2019-04-20T06:01:42.297Z,12.77
2019-04-20T06:04:01.645Z,12.81
2019-04-20T06:06:40.404Z,12.63
2019-04-20T06:09:12.053Z,12.64
2019-04-20T06:11:44.834Z,12.68
2019-04-20T06:14:14.427Z,12.67
2019-04-20T06:17:07.572Z,12.74
2019-04-20T06:22:14.882Z,12.91
2019-04-20T06:24:46.315Z,13.02
2019-04-20T06:27:09.123Z,13.13
2019-04-20T06:29:38.017Z,13.24
2019-04-20T06:32:18.305Z,13.37
2019-04-20T06:34:55.840Z,13.49
2019-04-20T06:37:02.852Z,13.62
2019-04-20T06:39:42.639Z,13.88
2019-04-20T06:49:56.794Z,14.65
2019-04-20T06:52:23.056Z,14.68
2019-04-20T06:55:01.566Z,14.84
2019-04-20T06:57:38.485Z,16.51
2019-04-20T07:00:10.085Z,18.48
2019-04-20T07:02:37.272Z,19.87
2019-04-20T07:05:10.042Z,20.18
2019-04-20T07:07:36.863Z,19.74
2019-04-20T07:10:13.389Z,20.72
2019-04-20T07:12:33.086Z,20.44
2019-04-20T07:14:55.495Z,21.02
2019-04-20T07:20:21.305Z,19.88
2019-04-20T07:23:02.290Z,19.32
2019-04-20T07:25:31.143Z,19.00
2019-04-20T07:27:59.478Z,18.84
2019-04-20T07:30:29.912Z,18.68
2019-04-20T07:33:00.102Z,18.84
2019-04-20T07:35:30.420Z,19.52
2019-04-20T07:40:28.727Z,20.01
2019-04-20T07:42:59.256Z,19.98
2019-04-20T07:45:32.992Z,19.90
2019-04-20T07:48:09.349Z,20.22
2019-04-20T07:50:26.556Z,20.66
2019-04-20T07:52:53.992Z,20.99
2019-04-20T07:57:58.997Z,21.22
2019-04-20T08:03:28.402Z,21.37
2019-04-20T08:05:46.831Z,21.20
2019-04-20T08:08:26.494Z,21.56
2019-04-20T08:10:53.656Z,22.01
2019-04-20T08:13:40.389Z,22.18
2019-04-20T08:16:00.663Z,22.31
2019-04-20T08:18:33.896Z,22.29
2019-04-20T08:21:02.417Z,22.18
2019-04-20T08:23:29.796Z,22.01
2019-04-20T08:25:49.783Z,22.27
2019-04-20T08:28:34.015Z,22.73
2019-04-20T08:31:26.934Z,23.14
2019-04-20T08:34:13.554Z,23.46
2019-04-20T08:36:43.184Z,23.48
2019-04-20T08:41:29.709Z,23.62
2019-04-20T08:44:21.449Z,23.54
2019-04-20T08:46:45.166Z,23.70
2019-04-20T08:49:08.332Z,23.81
2019-04-20T08:51:45.116Z,23.93
2019-04-20T08:54:08.657Z,23.78
2019-04-20T08:56:30.552Z,23.51
2019-04-20T08:58:48.346Z,23.77
2019-04-20T09:01:21.559Z,23.88
2019-04-20T09:03:58.924Z,24.07
2019-04-20T09:06:34.825Z,24.34
2019-04-20T09:09:08.005Z,24.59
2019-04-20T09:11:41.542Z,24.73
2019-04-20T09:13:53.639Z,25.05
2019-04-20T09:16:28.622Z,25.25
2019-04-20T09:18:57.892Z,25.30
2019-04-20T09:21:29.700Z,25.12
2019-04-20T09:24:17.198Z,24.98
2019-04-20T09:26:42.257Z,25.21
2019-04-20T09:29:05.938Z,25.48
2019-04-20T09:31:39.321Z,25.60
2019-04-20T09:34:18.703Z,25.76
2019-04-20T09:36:51.390Z,25.80
2019-04-20T09:39:22.490Z,25.73
2019-04-20T09:42:00.839Z,25.74
2019-04-20T09:44:25.688Z,25.91
2019-04-20T09:46:56.030Z,26.29
2019-04-20T09:49:35.303Z,26.43
2019-04-20T09:52:09.563Z,26.51
2019-04-20T09:54:42.992Z,26.57
2019-04-20T09:57:13.394Z,26.75
2019-04-20T09:59:45.139Z,26.59
2019-04-20T10:02:06.405Z,26.73
2019-04-20T10:04:25.814Z,26.91
2019-04-20T10:06:55.236Z,27.19
2019-04-20T10:09:29.452Z,27.16
2019-04-20T10:11:55.390Z,27.29
2019-04-20T10:14:24.848Z,27.21
2019-04-20T10:16:53.831Z,27.35
2019-04-20T10:19:28.923Z,27.37
2019-04-20T10:21:52.953Z,27.36
2019-04-20T10:24:21.605Z,27.05
2019-04-20T10:26:50.526Z,27.13
2019-04-20T10:29:19.627Z,27.37
2019-04-20T10:31:54.661Z,27.48
2019-04-20T10:34:21.130Z,27.47
2019-04-20T10:36:51.415Z,27.43
2019-04-20T10:39:22.471Z,27.46
2019-04-20T10:41:55.531Z,27.40
2019-04-20T10:44:23.005Z,27.56
2019-04-20T10:46:53.249Z,27.46
2019-04-20T10:49:22.824Z,27.51
2019-04-20T10:51:51.728Z,27.45
2019-04-20T10:54:20.504Z,27.40
2019-04-20T10:56:49.786Z,27.34
2019-04-20T10:59:19.357Z,27.35
2019-04-20T11:01:48.025Z,27.47
2019-04-20T11:04:16.764Z,27.35
2019-04-20T11:06:45.327Z,27.22
2019-04-20T11:09:14.410Z,27.27
2019-04-20T11:11:44.204Z,27.54
2019-04-20T11:14:22.835Z,27.57
2019-04-20T11:16:44.486Z,27.73
2019-04-20T11:19:15.549Z,27.78
2019-04-20T11:21:44.336Z,27.47
2019-04-20T11:24:14.349Z,27.63
2019-04-20T11:26:45.095Z,27.58
2019-04-20T11:29:14.107Z,27.35
2019-04-20T11:31:47.714Z,27.44
2019-04-20T11:34:21.371Z,27.42
2019-04-20T11:36:45.473Z,27.45
2019-04-20T11:39:14.747Z,27.63
2019-04-20T11:41:43.866Z,27.65
2019-04-20T11:44:13.786Z,27.63
2019-04-20T11:46:42.896Z,27.45
2019-04-20T11:49:11.593Z,27.60
2019-04-20T11:51:41.445Z,27.79
2019-04-20T11:54:10.418Z,27.90
2019-04-20T11:56:42.516Z,27.94
2019-04-20T11:59:09.611Z,27.99
2019-04-20T12:01:49.323Z,27.80
2019-04-20T12:04:28.463Z,27.57
2019-04-20T12:06:46.582Z,27.67
2019-04-20T12:09:15.303Z,27.52
2019-04-20T12:11:56.438Z,27.59
2019-04-20T12:14:14.615Z,27.51
2019-04-20T12:16:43.881Z,27.54
2019-04-20T12:19:12.752Z,27.53
2019-04-20T12:21:42.233Z,27.53
2019-04-20T12:24:12.149Z,27.38
2019-04-20T12:26:40.911Z,27.37
2019-04-20T12:29:09.944Z,27.49
2019-04-20T12:31:39.801Z,27.57
2019-04-20T12:34:08.622Z,27.66
2019-04-20T12:36:37.424Z,27.88
2019-04-20T12:39:08.962Z,27.79
2019-04-20T12:41:44.915Z,27.61
2019-04-20T12:44:08.049Z,27.74
2019-04-20T12:46:38.097Z,27.82
2019-04-20T12:49:07.694Z,27.90
2019-04-20T12:51:47.487Z,27.96
2019-04-20T12:54:06.787Z,28.16
2019-04-20T12:56:35.317Z,28.13
2019-04-20T12:59:05.373Z,28.19
2019-04-20T13:01:35.343Z,28.10
2019-04-20T13:04:07.354Z,28.09
2019-04-20T13:06:37.294Z,28.01
2019-04-20T13:09:10.555Z,28.08
2019-04-20T13:11:50.360Z,27.82
2019-04-20T13:14:48.439Z,27.86
2019-04-20T13:17:17.060Z,28.08
2019-04-20T13:19:46.975Z,27.99
2019-04-20T13:22:17.056Z,27.92
2019-04-20T13:24:47.181Z,27.88
2019-04-20T13:27:16.831Z,27.94
2019-04-20T13:29:47.873Z,28.02
2019-04-20T13:32:16.128Z,28.12
2019-04-20T13:34:44.908Z,27.89
2019-04-20T13:37:14.299Z,27.96
2019-04-20T13:39:42.846Z,28.00
2019-04-20T13:42:17.504Z,28.17
2019-04-20T13:44:43.169Z,28.16
2019-04-20T13:47:12.784Z,27.94
2019-04-20T13:49:42.770Z,28.01
2019-04-20T13:52:12.811Z,28.01
2019-04-20T13:54:42.072Z,27.90
2019-04-20T13:57:28.190Z,27.86
2019-04-20T13:59:59.850Z,27.95
2019-04-20T14:02:46.698Z,28.00
2019-04-20T14:05:17.030Z,28.16
2019-04-20T14:07:47.229Z,28.16
2019-04-20T14:10:17.407Z,28.03
2019-04-20T14:12:58.745Z,27.92
2019-04-20T14:15:17.382Z,27.91
2019-04-20T14:17:46.933Z,27.84
2019-04-20T14:20:19.109Z,27.84
2019-04-20T14:22:47.265Z,27.95
2019-04-20T14:25:15.961Z,27.91
2019-04-20T14:27:44.669Z,27.96
2019-04-20T14:30:15.149Z,27.91
2019-04-20T14:32:45.032Z,28.04
2019-04-20T14:35:14.707Z,28.07
2019-04-20T14:37:43.806Z,28.02
2019-04-20T14:40:12.767Z,27.89
2019-04-20T14:42:46.350Z,28.01
2019-04-20T14:45:12.185Z,27.88
2019-04-20T14:47:41.552Z,27.94
2019-04-20T14:50:11.683Z,27.94
2019-04-20T14:52:41.670Z,27.85
2019-04-20T14:55:13.431Z,27.89
2019-04-20T14:57:41.462Z,27.98
2019-04-20T15:00:21.621Z,27.90
2019-04-20T15:02:50.279Z,27.91
2019-04-20T15:05:19.149Z,27.80
2019-04-20T15:07:48.876Z,27.83
2019-04-20T15:10:18.742Z,27.82
2019-04-20T15:12:55.432Z,27.80
2019-04-20T15:15:18.750Z,27.78
2019-04-20T15:17:51.714Z,27.67
2019-04-20T15:20:33.434Z,27.58
2019-04-20T15:23:03.619Z,27.46
2019-04-20T15:25:32.190Z,27.60
2019-04-20T15:28:00.784Z,27.60
2019-04-20T15:30:29.950Z,27.30
2019-04-20T15:32:59.046Z,27.26
2019-04-20T15:35:28.188Z,27.27
2019-04-20T15:37:57.325Z,27.31
2019-04-20T15:40:26.970Z,27.44
2019-04-20T15:43:05.993Z,27.40
2019-04-20T15:45:27.247Z,27.34
2019-04-20T15:47:56.336Z,27.23
2019-04-20T15:50:25.675Z,27.09
2019-04-20T15:52:55.311Z,27.10
2019-04-20T15:55:30.059Z,27.02
2019-04-20T15:57:55.547Z,26.98
2019-04-20T16:00:24.639Z,26.88
2019-04-20T16:03:05.272Z,26.98
2019-04-20T16:05:51.440Z,26.95
2019-04-20T16:08:28.169Z,26.85
2019-04-20T16:10:57.319Z,26.79
2019-04-20T16:13:33.855Z,26.69
2019-04-20T16:15:57.985Z,26.59
2019-04-20T16:18:27.283Z,26.51
2019-04-20T16:21:03.578Z,26.43
2019-04-20T16:23:26.360Z,26.34
2019-04-20T16:25:59.628Z,26.05
2019-04-20T16:28:28.197Z,26.05
2019-04-20T16:30:56.753Z,26.04
2019-04-20T16:33:26.283Z,26.04
2019-04-20T16:35:54.866Z,26.06
2019-04-20T16:38:27.037Z,25.85
2019-04-20T16:40:54.543Z,25.86
2019-04-20T16:43:29.352Z,25.91
2019-04-20T16:45:54.994Z,25.95
2019-04-20T16:48:24.169Z,25.85
2019-04-20T16:50:53.092Z,25.82
2019-04-20T16:53:22.588Z,25.77
2019-04-20T16:55:52.711Z,25.75
2019-04-20T16:58:21.763Z,25.64
2019-04-20T17:00:51.762Z,25.58
2019-04-20T17:03:22.895Z,25.51
2019-04-20T17:05:51.404Z,25.36
2019-04-20T17:08:20.898Z,25.07
2019-04-20T17:10:49.544Z,24.95
2019-04-20T17:13:30.411Z,24.88
2019-04-20T17:15:49.933Z,24.71
2019-04-20T17:18:19.322Z,24.68
2019-04-20T17:20:48.416Z,24.60
2019-04-20T17:23:17.709Z,24.55
2019-04-20T17:25:46.305Z,24.44
2019-04-20T17:28:22.740Z,24.29
2019-04-20T17:30:56.812Z,24.32
2019-04-20T17:33:28.363Z,24.25
2019-04-20T17:36:08.878Z,24.11
2019-04-20T17:38:34.677Z,24.04
2019-04-20T17:41:15.674Z,23.91
2019-04-20T17:43:37.194Z,23.82
2019-04-20T17:46:08.125Z,23.75
2019-04-20T17:48:39.755Z,23.62
2019-04-20T17:51:23.433Z,23.42
2019-04-20T17:53:40.821Z,23.40
2019-04-20T17:56:04.059Z,23.38
2019-04-20T17:58:35.041Z,23.20
2019-04-20T18:01:06.184Z,23.07
2019-04-20T18:06:27.765Z,22.79
2019-04-20T18:08:53.602Z,22.69
2019-04-20T18:11:13.257Z,22.58
2019-04-20T18:13:37.947Z,22.40
2019-04-20T18:16:29.734Z,22.37
2019-04-20T18:18:51.687Z,22.26
2019-04-20T18:21:26.755Z,22.28
2019-04-20T18:23:56.275Z,22.22
2019-04-20T18:26:43.790Z,22.08
2019-04-20T18:29:16.555Z,22.04
2019-04-20T18:31:39.624Z,22.03
2019-04-20T18:34:14.368Z,21.95
2019-04-20T18:36:44.124Z,21.85
2019-04-20T18:39:14.610Z,21.69
2019-04-20T18:41:48.078Z,21.65
2019-04-20T18:44:12.775Z,21.54
2019-04-20T18:47:06.381Z,21.53
2019-04-20T18:49:28.226Z,21.45
2019-04-20T18:51:42.310Z,21.37
2019-04-20T18:54:18.393Z,21.32
2019-04-20T18:56:45.924Z,21.14
2019-04-20T18:59:11.577Z,21.12
2019-04-20T19:01:43.158Z,21.03
2019-04-20T19:04:11.967Z,21.05
2019-04-20T19:06:41.407Z,20.96
2019-04-20T19:09:16.704Z,20.83
2019-04-20T19:11:43.750Z,20.74
2019-04-20T19:14:34.509Z,20.69
2019-04-20T19:17:08.737Z,20.58
2019-04-20T19:19:37.423Z,20.42
2019-04-20T19:21:58.515Z,20.19
2019-04-20T19:24:30.976Z,20.05
2019-04-20T19:27:03.478Z,19.90
2019-04-20T19:29:34.689Z,19.88
2019-04-20T19:32:17.934Z,19.83
2019-04-20T19:34:41.782Z,19.67
2019-04-20T19:37:13.725Z,19.57
2019-04-20T19:39:47.077Z,19.40
2019-04-20T19:42:15.061Z,19.28
2019-04-20T19:44:45.165Z,19.15
2019-04-20T19:47:24.942Z,19.14
2019-04-20T19:49:40.382Z,19.12
2019-04-20T19:52:29.628Z,19.07
2019-04-20T19:54:50.135Z,19.06
2019-04-20T19:57:22.166Z,19.00
2019-04-20T19:59:39.841Z,19.01
2019-04-20T20:02:03.665Z,19.14
2019-04-20T20:04:42.449Z,19.07
2019-04-20T20:07:05.745Z,19.13
2019-04-20T20:09:41.081Z,19.20
2019-04-20T20:12:09.284Z,19.13
2019-04-20T20:14:39.711Z,19.30
2019-04-20T20:17:26.829Z,19.26
2019-04-20T20:20:03.926Z,19.28
2019-04-20T20:22:18.150Z,19.19
2019-04-20T20:24:36.835Z,19.05
2019-04-20T20:27:17.128Z,19.02
2019-04-20T20:29:41.304Z,18.86
2019-04-20T20:32:17.809Z,18.63
2019-04-20T20:34:43.157Z,18.60
2019-04-20T20:37:12.370Z,18.69
2019-04-20T20:39:40.185Z,18.74
2019-04-20T20:42:21.409Z,18.65
2019-04-20T20:44:47.929Z,18.65
2019-04-20T20:47:31.400Z,18.60
2019-04-20T20:50:03.238Z,18.51
2019-04-20T20:52:28.782Z,18.31
2019-04-20T20:54:49.785Z,18.10
2019-04-20T20:57:16.645Z,18.02
2019-04-20T20:59:51.372Z,17.94
2019-04-20T21:02:18.261Z,17.81
2019-04-20T21:04:41.479Z,17.67
2019-04-20T21:07:10.996Z,17.68
2019-04-20T21:09:39.659Z,17.55
2019-04-20T21:12:14.058Z,17.32
2019-04-20T21:14:42.156Z,17.39
2019-04-20T21:17:16.013Z,17.37
2019-04-20T21:19:57.925Z,17.36
2019-04-20T21:22:17.052Z,17.33
2019-04-20T21:24:43.839Z,17.25
2019-04-20T21:27:16.411Z,17.33
2019-04-20T21:29:47.531Z,17.26
2019-04-20T21:32:16.521Z,17.09
2019-04-20T21:34:49.217Z,17.04
2019-04-20T21:37:18.915Z,16.95
2019-04-20T21:39:49.766Z,16.86
2019-04-20T21:42:19.063Z,16.73
2019-04-20T21:44:48.518Z,16.73
2019-04-20T21:47:22.369Z,16.74
2019-04-20T21:49:57.497Z,16.69
2019-04-20T21:52:25.892Z,16.71
2019-04-20T21:54:47.870Z,16.64
2019-04-20T21:57:18.028Z,16.63
2019-04-20T21:59:50.501Z,16.60
2019-04-20T22:02:21.674Z,16.65
2019-04-20T22:04:47.522Z,16.78
2019-04-20T22:07:16.545Z,16.80
2019-04-20T22:09:49.560Z,16.72
2019-04-20T22:12:16.303Z,16.72
2019-04-20T22:14:49.647Z,16.65
2019-04-20T22:17:22.398Z,16.42
2019-04-20T22:20:02.627Z,16.44
2019-04-20T22:22:34.633Z,16.50
2019-04-20T22:25:01.485Z,16.39
2019-04-20T22:27:23.700Z,16.26
2019-04-20T22:29:48.186Z,16.30
2019-04-20T22:32:19.965Z,16.24
2019-04-20T22:34:55.968Z,16.06
2019-04-20T22:37:22.953Z,15.89
2019-04-20T22:39:54.477Z,15.74
2019-04-20T22:42:21.722Z,15.65
2019-04-20T22:44:57.561Z,15.62
2019-04-20T22:47:25.394Z,15.64
2019-04-20T22:50:14.058Z,15.49
2019-04-20T22:52:36.228Z,15.44
2019-04-20T22:55:16.831Z,15.37
2019-04-20T22:57:36.268Z,15.30
2019-04-20T23:00:02.478Z,15.25
2019-04-20T23:02:24.896Z,15.22
2019-04-20T23:04:53.351Z,15.13
2019-04-20T23:07:22.999Z,15.05
2019-04-20T23:09:54.989Z,14.92
2019-04-20T23:12:23.761Z,14.85
2019-04-20T23:14:52.414Z,14.84
2019-04-20T23:17:26.975Z,14.85
2019-04-20T23:19:56.150Z,14.94
2019-04-20T23:22:23.075Z,14.86
2019-04-20T23:24:53.179Z,14.77
2019-04-20T23:27:27.262Z,14.71
2019-04-20T23:29:53.235Z,14.63
2019-04-20T23:32:25.114Z,14.56
2019-04-20T23:34:57.704Z,14.55
2019-04-20T23:37:28.223Z,14.47
2019-04-20T23:39:54.452Z,14.31
2019-04-20T23:42:27.948Z,14.22
2019-04-20T23:45:00.414Z,14.22
2019-04-20T23:47:34.288Z,14.19
2019-04-20T23:50:30.144Z,14.20
2019-04-20T23:53:03.779Z,14.15
2019-04-20T23:55:13.438Z,14.17
2019-04-20T23:57:41.938Z,14.14
